Time,TemperatureF,DewpointF,PressureIn,WindDirection,WindDirectionDegrees,WindSpeedMPH,WindSpeedGustMPH,Humidity,HourlyPrecipIn,Conditions,Clouds,dailyrainin,SolarRadiationWatts/m^2,SoftwareType,DateUTC
2013-05-19 00:02:00,55.8,54.1,30.07,East,90,2.0,5.0,94,0.00,,,0.17,0.0,meteohub,2013-05-19 10:02:00,
2013-05-19 00:07:00,55.9,54.0,30.07,East,84,1.0,5.0,93,0.00,,,0.17,0.0,meteohub,2013-05-19 10:07:00,
2013-05-19 00:12:00,55.9,54.0,30.07,East,98,1.0,5.0,93,0.00,,,0.17,0.0,meteohub,2013-05-19 10:12:00,
2013-05-19 00:17:00,55.6,53.6,30.07,ENE,78,1.0,5.0,93,0.00,,,0.17,0.0,meteohub,2013-05-19 10:17:00,
2013-05-19 00:22:00,55.2,53.2,30.07,East,80,2.0,5.0,93,0.00,,,0.17,0.0,meteohub,2013-05-19 10:22:00,
2013-05-19 00:27:00,55.2,53.2,30.07,ENE,71,2.0,5.0,93,0.00,,,0.17,0.0,meteohub,2013-05-19 10:27:00,
2013-05-19 00:32:00,55.2,53.2,30.07,East,80,2.0,5.0,93,0.00,,,0.17,0.0,meteohub,2013-05-19 10:32:00,
2013-05-19 00:37:00,55.0,53.1,30.07,East,80,2.0,5.0,93,0.00,,,0.17,0.0,meteohub,2013-05-19 10:37:00,
2013-05-19 00:42:00,54.5,52.9,30.07,East,85,2.0,5.0,94,0.00,,,0.17,0.0,meteohub,2013-05-19 10:42:00,
2013-05-19 00:48:00,54.3,52.7,30.07,East,96,1.0,4.0,94,0.00,,,0.17,0.0,meteohub,2013-05-19 10:48:00,
2013-05-19 00:53:00,54.7,53.1,30.07,East,82,2.0,6.0,94,0.00,,,0.17,0.0,meteohub,2013-05-19 10:53:00,
2013-05-19 00:58:00,54.9,53.2,30.07,East,81,3.0,6.0,94,0.00,,,0.17,0.0,meteohub,2013-05-19 10:58:00,
2013-05-19 01:03:00,54.9,53.2,30.06,East,84,3.0,6.0,94,0.00,,,0.17,0.0,meteohub,2013-05-19 11:03:00,
2013-05-19 01:08:00,54.9,52.9,30.06,East,80,3.0,6.0,93,0.00,,,0.17,0.0,meteohub,2013-05-19 11:08:00,
2013-05-19 01:13:00,54.9,52.9,30.06,East,83,2.0,5.0,93,0.00,,,0.17,0.0,meteohub,2013-05-19 11:13:00,
2013-05-19 01:18:00,54.5,52.9,30.06,East,80,3.0,5.0,94,0.00,,,0.17,0.0,meteohub,2013-05-19 11:18:00,
2013-05-19 01:23:00,54.3,52.3,30.06,East,80,1.0,5.0,93,0.00,,,0.17,0.0,meteohub,2013-05-19 11:23:00,
2013-05-19 01:28:00,54.0,52.3,30.06,ESE,104,1.0,6.0,94,0.00,,,0.17,0.0,meteohub,2013-05-19 11:28:00,
2013-05-19 01:33:00,53.8,52.2,30.06,East,88,1.0,6.0,94,0.00,,,0.17,0.0,meteohub,2013-05-19 11:33:00,
2013-05-19 01:38:00,53.6,52.2,30.06,East,82,2.0,4.0,95,0.00,,,0.17,0.0,meteohub,2013-05-19 11:38:00,
2013-05-19 01:43:00,53.8,52.3,30.05,East,85,2.0,3.0,95,0.00,,,0.17,0.0,meteohub,2013-05-19 11:43:00,
2013-05-19 01:49:00,53.6,52.0,30.05,East,80,1.0,3.0,94,0.00,,,0.17,0.0,meteohub,2013-05-19 11:49:00,
2013-05-19 01:54:00,53.6,52.2,30.05,ENE,65,1.0,5.0,95,0.00,,,0.17,0.0,meteohub,2013-05-19 11:54:00,
2013-05-19 01:59:00,53.8,52.2,30.05,ENE,67,3.0,5.0,94,0.00,,,0.17,0.0,meteohub,2013-05-19 11:59:00,
2013-05-19 02:04:00,54.0,52.0,30.05,East,101,2.0,5.0,93,0.00,,,0.17,0.0,meteohub,2013-05-19 12:04:00,
2013-05-19 02:09:00,53.8,51.4,30.05,East,79,2.0,4.0,92,0.00,,,0.17,0.0,meteohub,2013-05-19 12:09:00,
2013-05-19 02:14:00,53.4,51.4,30.04,East,85,1.0,5.0,93,0.00,,,0.17,0.0,meteohub,2013-05-19 12:14:00,
2013-05-19 02:19:00,53.1,51.4,30.04,East,84,2.0,5.0,94,0.00,,,0.17,0.0,meteohub,2013-05-19 12:19:00,
2013-05-19 02:24:00,53.2,51.6,30.04,East,91,5.0,5.0,94,0.00,,,0.17,0.0,meteohub,2013-05-19 12:24:00,
2013-05-19 02:29:00,53.4,51.4,30.04,East,82,0.0,5.0,93,0.00,,,0.17,0.0,meteohub,2013-05-19 12:29:00,
2013-05-19 02:34:00,53.2,51.3,30.04,East,90,1.0,5.0,93,0.00,,,0.17,0.0,meteohub,2013-05-19 12:34:00,
2013-05-19 02:39:00,53.1,51.4,30.04,East,86,2.0,5.0,94,0.00,,,0.17,0.0,meteohub,2013-05-19 12:39:00,
2013-05-19 02:44:00,52.9,51.3,30.04,ESE,117,3.0,3.0,94,0.00,,,0.17,0.0,meteohub,2013-05-19 12:44:00,
2013-05-19 02:49:00,52.5,51.1,30.04,East,88,2.0,3.0,95,0.00,,,0.17,0.0,meteohub,2013-05-19 12:49:00,
2013-05-19 02:54:00,52.5,51.1,30.04,East,84,0.0,3.0,95,0.00,,,0.17,0.0,meteohub,2013-05-19 12:54:00,
2013-05-19 02:59:00,52.7,51.3,30.04,East,84,1.0,5.0,95,0.00,,,0.17,0.0,meteohub,2013-05-19 12:59:00,
2013-05-19 03:04:00,52.5,51.1,30.04,East,89,2.0,5.0,95,0.00,,,0.17,0.0,meteohub,2013-05-19 13:04:00,
2013-05-19 03:09:00,52.3,50.9,30.04,ESE,111,1.0,5.0,95,0.00,,,0.17,0.0,meteohub,2013-05-19 13:09:00,
2013-05-19 03:14:00,52.3,50.9,30.04,East,94,1.0,3.0,95,0.00,,,0.17,0.0,meteohub,2013-05-19 13:14:00,
2013-05-19 03:19:00,52.3,50.9,30.04,East,82,1.0,3.0,95,0.00,,,0.17,0.0,meteohub,2013-05-19 13:19:00,
2013-05-19 03:24:00,52.3,50.9,30.04,ENE,77,3.0,3.0,95,0.00,,,0.17,0.0,meteohub,2013-05-19 13:24:00,
2013-05-19 03:29:00,52.9,51.3,30.04,ENE,76,1.0,5.0,94,0.00,,,0.17,0.0,meteohub,2013-05-19 13:29:00,
2013-05-19 03:34:00,53.2,51.6,30.04,East,88,2.0,5.0,94,0.00,,,0.17,0.0,meteohub,2013-05-19 13:34:00,
2013-05-19 03:39:00,53.4,51.4,30.04,East,81,1.0,5.0,93,0.00,,,0.17,0.0,meteohub,2013-05-19 13:39:00,
2013-05-19 03:44:00,53.2,51.3,30.04,East,87,1.0,5.0,93,0.00,,,0.17,0.0,meteohub,2013-05-19 13:44:00,
2013-05-19 03:49:00,53.2,51.3,30.04,East,83,2.0,5.0,93,0.00,,,0.17,0.0,meteohub,2013-05-19 13:49:00,
2013-05-19 03:54:00,53.4,51.4,30.04,East,80,1.0,5.0,93,0.00,,,0.17,0.0,meteohub,2013-05-19 13:54:00,
2013-05-19 03:59:00,53.2,50.9,30.04,East,81,1.0,5.0,92,0.00,,,0.17,0.0,meteohub,2013-05-19 13:59:00,
2013-05-19 04:04:00,53.1,51.1,30.04,ENE,78,2.0,5.0,93,0.00,,,0.17,0.0,meteohub,2013-05-19 14:04:00,
2013-05-19 04:09:00,53.4,51.4,30.04,ENE,78,2.0,5.0,93,0.00,,,0.17,0.0,meteohub,2013-05-19 14:09:00,
2013-05-19 04:15:00,53.2,50.9,30.04,ENE,78,1.0,5.0,92,0.00,,,0.17,0.0,meteohub,2013-05-19 14:15:00,
2013-05-19 04:20:00,53.1,51.1,30.04,ENE,70,1.0,5.0,93,0.00,,,0.17,0.0,meteohub,2013-05-19 14:20:00,
2013-05-19 04:25:00,53.2,51.3,30.04,ENE,77,2.0,5.0,93,0.00,,,0.17,0.0,meteohub,2013-05-19 14:25:00,
2013-05-19 04:30:00,53.2,51.3,30.04,East,94,1.0,5.0,93,0.00,,,0.17,0.0,meteohub,2013-05-19 14:30:00,
2013-05-19 04:35:00,52.9,50.9,30.04,East,85,1.0,5.0,93,0.00,,,0.17,0.0,meteohub,2013-05-19 14:35:00,
2013-05-19 04:40:00,52.5,50.9,30.04,East,91,2.0,4.0,94,0.00,,,0.17,0.0,meteohub,2013-05-19 14:40:00,
2013-05-19 04:45:00,52.5,51.1,30.04,East,82,2.0,3.0,95,0.00,,,0.17,0.0,meteohub,2013-05-19 14:45:00,
2013-05-19 04:52:00,52.5,50.9,30.04,ESE,115,2.0,5.0,94,0.00,,,0.17,0.0,meteohub,2013-05-19 14:52:00,
2013-05-19 04:57:00,52.5,50.9,30.04,East,92,2.0,5.0,94,0.00,,,0.17,0.0,meteohub,2013-05-19 14:57:00,
2013-05-19 05:02:00,52.5,50.9,30.04,East,83,2.0,4.0,94,0.00,,,0.17,0.0,meteohub,2013-05-19 15:02:00,
2013-05-19 05:07:00,52.5,50.9,30.04,East,80,2.0,3.0,94,0.00,,,0.17,0.0,meteohub,2013-05-19 15:07:00,
2013-05-19 05:13:00,52.3,50.7,30.04,East,82,2.0,4.0,94,0.00,,,0.17,0.0,meteohub,2013-05-19 15:13:00,
2013-05-19 05:18:00,52.2,50.5,30.04,East,80,1.0,4.0,94,0.00,,,0.17,0.0,meteohub,2013-05-19 15:18:00,
2013-05-19 05:23:00,52.0,50.4,30.04,East,93,1.0,4.0,94,0.00,,,0.17,0.0,meteohub,2013-05-19 15:23:00,
2013-05-19 05:28:00,51.8,50.4,30.05,ESE,113,0.0,3.0,95,0.00,,,0.17,0.0,meteohub,2013-05-19 15:28:00,
2013-05-19 05:33:00,51.6,50.2,30.05,East,94,2.0,3.0,95,0.00,,,0.17,0.0,meteohub,2013-05-19 15:33:00,
2013-05-19 05:38:00,52.0,50.9,30.05,ENE,76,2.0,3.0,96,0.00,,,0.17,0.0,meteohub,2013-05-19 15:38:00,
2013-05-19 05:43:00,52.2,50.5,30.05,East,89,2.0,5.0,94,0.00,,,0.17,0.0,meteohub,2013-05-19 15:43:00,
2013-05-19 05:48:00,52.2,50.5,30.05,ESE,102,1.0,5.0,94,0.00,,,0.17,0.0,meteohub,2013-05-19 15:48:00,
2013-05-19 05:53:00,52.0,50.4,30.05,ESE,106,2.0,5.0,94,0.00,,,0.17,5.0,meteohub,2013-05-19 15:53:00,
2013-05-19 05:58:00,51.8,50.4,30.05,East,98,1.0,3.0,95,0.00,,,0.17,7.0,meteohub,2013-05-19 15:58:00,
2013-05-19 06:03:00,51.8,50.4,30.05,East,94,1.0,3.0,95,0.00,,,0.17,9.0,meteohub,2013-05-19 16:03:00,
2013-05-19 06:08:00,52.2,51.1,30.05,East,97,2.0,3.0,96,0.00,,,0.17,11.0,meteohub,2013-05-19 16:08:00,
2013-05-19 06:13:00,52.3,50.9,30.05,East,87,1.0,3.0,95,0.00,,,0.17,12.0,meteohub,2013-05-19 16:13:00,
2013-05-19 06:18:00,52.5,50.9,30.05,ENE,78,2.0,3.0,94,0.00,,,0.17,14.0,meteohub,2013-05-19 16:18:00,
2013-05-19 06:23:00,52.3,50.7,30.05,ENE,78,2.0,5.0,94,0.00,,,0.17,16.0,meteohub,2013-05-19 16:23:00,
2013-05-19 06:28:00,52.3,50.7,30.06,East,82,3.0,5.0,94,0.00,,,0.17,18.0,meteohub,2013-05-19 16:28:00,
2013-05-19 06:33:00,52.3,50.7,30.06,East,87,2.0,5.0,94,0.00,,,0.17,19.0,meteohub,2013-05-19 16:33:00,
2013-05-19 06:38:00,52.5,51.1,30.06,East,94,1.0,3.0,95,0.00,,,0.17,23.0,meteohub,2013-05-19 16:38:00,
2013-05-19 06:43:00,52.7,51.3,30.06,East,79,2.0,3.0,95,0.00,,,0.17,21.0,meteohub,2013-05-19 16:43:00,
2013-05-19 06:48:00,52.9,51.3,30.06,East,86,0.0,4.0,94,0.00,,,0.17,21.0,meteohub,2013-05-19 16:48:00,
2013-05-19 06:53:00,53.1,51.6,30.06,East,86,1.0,4.0,95,0.00,,,0.17,23.0,meteohub,2013-05-19 16:53:00,
2013-05-19 06:58:00,53.2,51.8,30.06,East,86,2.0,4.0,95,0.00,,,0.17,23.0,meteohub,2013-05-19 16:58:00,
2013-05-19 07:03:00,53.8,52.3,30.06,East,94,1.0,3.0,95,0.00,,,0.17,23.0,meteohub,2013-05-19 17:03:00,
2013-05-19 07:08:00,54.0,52.3,30.06,East,97,1.0,3.0,94,0.00,,,0.17,25.0,meteohub,2013-05-19 17:08:00,
2013-05-19 07:13:00,54.3,52.7,30.06,ESE,103,1.0,3.0,94,0.00,,,0.17,25.0,meteohub,2013-05-19 17:13:00,
2013-05-19 07:19:00,54.7,53.1,30.06,ESE,103,0.0,3.0,94,0.00,,,0.17,25.0,meteohub,2013-05-19 17:19:00,
2013-05-19 07:24:00,55.0,53.6,30.06,ESE,103,0.0,2.0,95,0.00,,,0.17,26.0,meteohub,2013-05-19 17:24:00,
2013-05-19 07:29:00,55.8,54.3,30.06,ESE,103,0.0,2.0,95,0.00,,,0.17,26.0,meteohub,2013-05-19 17:29:00,
2013-05-19 07:34:00,56.7,55.2,30.06,ESE,103,0.0,2.0,95,0.00,,,0.17,28.0,meteohub,2013-05-19 17:34:00,
2013-05-19 07:39:00,57.6,56.1,30.06,ESE,103,0.0,1.0,95,0.00,,,0.17,26.0,meteohub,2013-05-19 17:39:00,
2013-05-19 07:44:00,58.5,56.7,30.06,ESE,103,0.0,1.0,94,0.00,,,0.17,28.0,meteohub,2013-05-19 17:44:00,
2013-05-19 07:49:00,59.0,57.0,30.06,ESE,103,0.0,1.0,93,0.00,,,0.17,28.0,meteohub,2013-05-19 17:49:00,
2013-05-19 07:54:00,59.7,57.4,30.06,ESE,103,0.0,1.0,92,0.00,,,0.17,32.0,meteohub,2013-05-19 17:54:00,
2013-05-19 07:59:00,60.6,58.8,30.06,ESE,103,0.0,1.0,94,0.00,,,0.17,32.0,meteohub,2013-05-19 17:59:00,
2013-05-19 08:04:00,61.9,59.0,30.06,ESE,103,0.0,1.0,90,0.00,,,0.17,32.0,meteohub,2013-05-19 18:04:00,
2013-05-19 08:09:00,62.4,58.8,30.06,South,171,0.0,2.0,88,0.00,,,0.17,32.0,meteohub,2013-05-19 18:09:00,
2013-05-19 08:14:00,63.0,58.6,30.06,West,265,0.0,2.0,86,0.00,,,0.17,32.0,meteohub,2013-05-19 18:14:00,
2013-05-19 08:20:00,63.9,59.9,30.06,West,277,1.0,2.0,87,0.00,,,0.17,33.0,meteohub,2013-05-19 18:20:00,
2013-05-19 08:25:00,64.4,59.7,30.06,West,277,0.0,2.0,85,0.00,,,0.17,35.0,meteohub,2013-05-19 18:25:00,
2013-05-19 08:30:00,65.1,60.1,30.06,West,271,0.0,2.0,84,0.00,,,0.17,35.0,meteohub,2013-05-19 18:30:00,
2013-05-19 08:36:00,65.3,60.1,30.06,West,271,0.0,2.0,83,0.00,,,0.17,35.0,meteohub,2013-05-19 18:36:00,
2013-05-19 08:41:00,65.7,60.6,30.05,West,271,1.0,2.0,84,0.00,,,0.17,35.0,meteohub,2013-05-19 18:41:00,
2013-05-19 08:46:00,65.8,60.6,30.05,West,271,0.0,2.0,83,0.00,,,0.17,46.0,meteohub,2013-05-19 18:46:00,
2013-05-19 08:51:00,66.4,60.8,30.05,WSW,239,0.0,4.0,82,0.00,,,0.17,97.0,meteohub,2013-05-19 18:51:00,
2013-05-19 08:56:00,66.0,60.4,30.05,WSW,238,1.0,5.0,82,0.00,,,0.17,98.0,meteohub,2013-05-19 18:56:00,
2013-05-19 09:01:00,66.0,60.6,30.05,SSW,208,0.0,5.0,83,0.00,,,0.17,137.0,meteohub,2013-05-19 19:01:00,
2013-05-19 09:06:00,66.0,60.6,30.05,SW,221,2.0,4.0,83,0.00,,,0.17,243.0,meteohub,2013-05-19 19:06:00,
2013-05-19 09:11:00,66.6,61.5,30.05,NW,306,0.0,5.0,84,0.00,,,0.17,283.0,meteohub,2013-05-19 19:11:00,
2013-05-19 09:16:00,66.7,61.7,30.05,West,265,2.0,6.0,84,0.00,,,0.17,225.0,meteohub,2013-05-19 19:16:00,
2013-05-19 09:21:00,66.4,61.0,30.05,West,279,0.0,6.0,83,0.00,,,0.17,223.0,meteohub,2013-05-19 19:21:00,
2013-05-19 09:26:00,66.0,61.7,30.05,WSW,251,3.0,6.0,86,0.00,,,0.17,244.0,meteohub,2013-05-19 19:26:00,
2013-05-19 09:31:00,65.7,61.7,30.05,WSW,248,0.0,6.0,87,0.00,,,0.17,225.0,meteohub,2013-05-19 19:31:00,
2013-05-19 09:36:00,65.1,61.2,30.05,West,263,2.0,5.0,87,0.00,,,0.17,373.0,meteohub,2013-05-19 19:36:00,
2013-05-19 09:41:00,65.1,61.5,30.05,WSW,258,0.0,5.0,88,0.00,,,0.17,181.0,meteohub,2013-05-19 19:41:00,
2013-05-19 09:46:00,65.1,61.9,30.05,West,261,0.0,5.0,89,0.00,,,0.17,171.0,meteohub,2013-05-19 19:46:00,
2013-05-19 09:51:00,64.8,61.5,30.05,SSW,213,0.0,5.0,89,0.00,,,0.17,202.0,meteohub,2013-05-19 19:51:00,
2013-05-19 09:56:00,64.6,61.5,30.05,SW,230,0.0,5.0,90,0.00,,,0.17,179.0,meteohub,2013-05-19 19:56:00,
2013-05-19 10:01:00,64.8,61.7,30.05,WSW,238,2.0,3.0,90,0.00,,,0.17,325.0,meteohub,2013-05-19 20:01:00,
2013-05-19 10:06:00,64.8,61.7,30.05,WNW,295,2.0,4.0,90,0.00,,,0.17,287.0,meteohub,2013-05-19 20:06:00,
2013-05-19 10:11:00,64.6,61.3,30.05,WSW,242,1.0,4.0,89,0.00,,,0.17,350.0,meteohub,2013-05-19 20:11:00,
2013-05-19 10:16:00,64.8,61.5,30.05,WNW,285,2.0,4.0,89,0.00,,,0.17,313.0,meteohub,2013-05-19 20:16:00,
2013-05-19 10:21:00,64.9,61.0,30.05,WSW,256,0.0,4.0,87,0.00,,,0.17,329.0,meteohub,2013-05-19 20:21:00,
2013-05-19 10:26:00,65.5,62.2,30.05,WSW,244,5.0,6.0,89,0.00,,,0.17,322.0,meteohub,2013-05-19 20:26:00,
2013-05-19 10:31:00,65.7,62.1,30.05,West,264,0.0,9.0,88,0.00,,,0.17,350.0,meteohub,2013-05-19 20:31:00,
2013-05-19 10:36:00,65.7,62.1,30.04,WSW,251,1.0,9.0,88,0.00,,,0.17,443.0,meteohub,2013-05-19 20:36:00,
2013-05-19 10:41:00,66.0,61.7,30.04,WSW,246,1.0,9.0,86,0.00,,,0.17,410.0,meteohub,2013-05-19 20:41:00,
2013-05-19 10:46:00,66.0,61.7,30.04,WSW,240,1.0,6.0,86,0.00,,,0.17,403.0,meteohub,2013-05-19 20:46:00,
2013-05-19 10:51:00,66.2,61.5,30.04,WNW,290,0.0,5.0,85,0.00,,,0.17,513.0,meteohub,2013-05-19 20:51:00,
2013-05-19 10:56:00,66.4,61.7,30.04,WNW,292,0.0,5.0,85,0.00,,,0.17,580.0,meteohub,2013-05-19 20:56:00,
2013-05-19 11:01:00,66.9,63.0,30.04,WSW,245,0.0,5.0,87,0.00,,,0.17,338.0,meteohub,2013-05-19 21:01:00,
2013-05-19 11:06:00,67.1,63.1,30.04,SW,222,3.0,7.0,87,0.00,,,0.17,378.0,meteohub,2013-05-19 21:06:00,
2013-05-19 11:12:00,66.9,63.0,30.03,West,271,3.0,7.0,87,0.00,,,0.17,339.0,meteohub,2013-05-19 21:12:00,
2013-05-19 11:17:00,66.7,62.8,30.03,WSW,254,3.0,7.0,87,0.00,,,0.17,403.0,meteohub,2013-05-19 21:17:00,
2013-05-19 11:22:00,66.6,62.6,30.03,West,269,0.0,7.0,87,0.00,,,0.17,367.0,meteohub,2013-05-19 21:22:00,
2013-05-19 11:27:00,66.7,63.1,30.03,WNW,292,1.0,7.0,88,0.00,,,0.17,417.0,meteohub,2013-05-19 21:27:00,
2013-05-19 11:32:00,66.7,62.8,30.03,West,265,0.0,5.0,87,0.00,,,0.17,195.0,meteohub,2013-05-19 21:32:00,
2013-05-19 11:37:00,66.6,63.0,30.03,WSW,239,1.0,5.0,88,0.00,,,0.17,100.0,meteohub,2013-05-19 21:37:00,
2013-05-19 11:42:00,66.0,63.0,30.02,SW,235,1.0,5.0,90,0.00,,,0.17,67.0,meteohub,2013-05-19 21:42:00,
2013-05-19 11:47:00,65.7,63.0,30.03,SW,222,2.0,5.0,91,0.00,,,0.17,149.0,meteohub,2013-05-19 21:47:00,
2013-05-19 11:52:00,65.5,63.1,30.02,WSW,238,0.0,5.0,92,0.00,,,0.17,141.0,meteohub,2013-05-19 21:52:00,
2013-05-19 11:57:00,64.9,62.8,30.02,NW,312,0.0,5.0,93,0.00,,,0.17,102.0,meteohub,2013-05-19 21:57:00,
2013-05-19 12:02:00,64.6,62.2,30.02,WSW,255,2.0,6.0,92,0.00,,,0.17,93.0,meteohub,2013-05-19 22:02:00,
2013-05-19 12:07:00,64.4,62.6,30.02,West,261,0.0,6.0,94,0.00,,,0.17,158.0,meteohub,2013-05-19 22:07:00,
2013-05-19 12:12:00,64.4,62.6,30.01,West,281,2.0,6.0,94,0.00,,,0.17,116.0,meteohub,2013-05-19 22:12:00,
2013-05-19 12:17:00,64.2,62.4,30.01,WSW,254,0.0,5.0,94,0.02,,,0.19,104.0,meteohub,2013-05-19 22:17:00,
2013-05-19 12:22:00,64.0,62.2,30.01,WSW,250,0.0,3.0,94,0.02,,,0.19,65.0,meteohub,2013-05-19 22:22:00,
2013-05-19 12:27:00,63.9,62.4,30.01,SSW,211,0.0,3.0,95,0.03,,,0.20,248.0,meteohub,2013-05-19 22:27:00,
2013-05-19 12:32:00,64.0,63.0,30.00,West,275,1.0,3.0,96,0.04,,,0.21,497.0,meteohub,2013-05-19 22:32:00,
2013-05-19 12:37:00,64.0,63.0,30.00,West,269,0.0,3.0,96,0.04,,,0.21,264.0,meteohub,2013-05-19 22:37:00,
2013-05-19 12:42:00,64.2,62.8,30.00,West,268,1.0,3.0,95,0.04,,,0.21,139.0,meteohub,2013-05-19 22:42:00,
2013-05-19 12:47:00,64.0,62.6,30.00,SW,219,2.0,2.0,95,0.04,,,0.21,28.0,meteohub,2013-05-19 22:47:00,
2013-05-19 12:52:00,63.7,62.2,30.00,West,269,0.0,6.0,95,0.04,,,0.21,105.0,meteohub,2013-05-19 22:52:00,
2013-05-19 12:57:00,63.1,62.1,29.99,WSW,246,1.0,6.0,96,0.13,,,0.30,146.0,meteohub,2013-05-19 22:57:00,
2013-05-19 13:02:00,62.8,61.7,29.99,SW,220,0.0,6.0,96,0.21,,,0.38,77.0,meteohub,2013-05-19 23:02:00,
2013-05-19 13:07:00,62.8,61.7,29.99,SW,219,0.0,4.0,96,0.22,,,0.39,76.0,meteohub,2013-05-19 23:07:00,
2013-05-19 13:12:00,62.6,61.7,29.99,SSW,211,1.0,3.0,97,0.24,,,0.41,93.0,meteohub,2013-05-19 23:12:00,
2013-05-19 13:17:00,62.2,61.3,29.99,North,0,2.0,2.0,97,0.24,,,0.43,42.0,meteohub,2013-05-19 23:17:00,
2013-05-19 13:22:00,62.2,61.3,29.99,SE,137,2.0,2.0,97,0.26,,,0.45,114.0,meteohub,2013-05-19 23:22:00,
2013-05-19 13:28:00,62.2,61.3,29.99,SW,216,0.0,2.0,97,0.27,,,0.48,46.0,meteohub,2013-05-19 23:28:00,
2013-05-19 13:33:00,62.2,61.3,29.99,WNW,293,1.0,3.0,97,0.27,,,0.48,86.0,meteohub,2013-05-19 23:33:00,
2013-05-19 13:38:00,62.4,61.9,29.99,WSW,253,1.0,3.0,98,0.28,,,0.49,81.0,meteohub,2013-05-19 23:38:00,
2013-05-19 13:43:00,62.4,61.9,29.99,SW,232,0.0,5.0,98,0.28,,,0.49,165.0,meteohub,2013-05-19 23:43:00,
2013-05-19 13:48:00,62.4,61.9,29.99,SW,220,0.0,5.0,98,0.28,,,0.49,100.0,meteohub,2013-05-19 23:48:00,
2013-05-19 13:53:00,62.2,61.7,29.99,South,190,0.0,5.0,98,0.28,,,0.49,39.0,meteohub,2013-05-19 23:53:00,
2013-05-19 13:58:00,62.4,61.9,29.99,SW,220,0.0,4.0,98,0.16,,,0.49,25.0,meteohub,2013-05-19 23:58:00,
2013-05-19 14:03:00,62.2,61.7,29.99,WSW,247,0.0,4.0,98,0.15,,,0.49,51.0,meteohub,2013-05-20 00:03:00,
2013-05-19 14:08:00,62.4,61.9,29.99,West,280,0.0,4.0,98,0.20,,,0.06,130.0,meteohub,2013-05-20 00:08:00,
2013-05-19 14:13:00,62.4,61.9,29.98,WNW,298,0.0,5.0,98,0.21,,,0.09,54.0,meteohub,2013-05-20 00:13:00,
2013-05-19 14:18:00,62.4,62.1,29.99,WSW,253,1.0,6.0,99,0.19,,,0.09,100.0,meteohub,2013-05-20 00:18:00,
2013-05-19 14:23:00,62.4,62.1,29.98,SW,225,1.0,6.0,99,0.15,,,0.09,102.0,meteohub,2013-05-20 00:23:00,
2013-05-19 14:28:00,62.4,61.9,29.98,West,277,3.0,6.0,98,0.14,,,0.09,171.0,meteohub,2013-05-20 00:28:00,
2013-05-19 14:33:00,62.4,62.1,29.98,WNW,290,0.0,7.0,99,0.14,,,0.09,91.0,meteohub,2013-05-20 00:33:00,
2013-05-19 14:38:00,62.2,61.7,29.98,North,0,2.0,7.0,98,0.14,,,0.10,77.0,meteohub,2013-05-20 00:38:00,
2013-05-19 14:43:00,62.2,61.7,29.98,WNW,294,1.0,7.0,98,0.14,,,0.10,32.0,meteohub,2013-05-20 00:43:00,
2013-05-19 14:48:00,62.1,61.5,29.98,West,274,0.0,4.0,98,0.14,,,0.10,62.0,meteohub,2013-05-20 00:48:00,
2013-05-19 14:53:00,62.1,61.5,29.98,NW,313,1.0,3.0,98,0.14,,,0.10,155.0,meteohub,2013-05-20 00:53:00,
2013-05-19 14:58:00,62.2,61.9,29.98,North,0,1.0,4.0,99,0.14,,,0.10,104.0,meteohub,2013-05-20 00:58:00,
2013-05-19 15:03:00,62.2,61.9,29.98,WNW,296,0.0,4.0,99,0.08,,,0.10,53.0,meteohub,2013-05-20 01:03:00,
2013-05-19 15:08:00,62.2,61.9,29.97,West,274,0.0,4.0,99,0.02,,,0.10,62.0,meteohub,2013-05-20 01:08:00,
2013-05-19 15:13:00,62.1,61.5,29.97,WNW,284,1.0,4.0,98,0.01,,,0.10,63.0,meteohub,2013-05-20 01:13:00,
2013-05-19 15:18:00,61.9,61.5,29.97,North,0,2.0,4.0,99,0.01,,,0.10,118.0,meteohub,2013-05-20 01:18:00,
2013-05-19 15:23:00,62.1,61.7,29.97,WNW,300,0.0,4.0,99,0.01,,,0.10,158.0,meteohub,2013-05-20 01:23:00,
2013-05-19 15:28:00,62.2,61.9,29.97,WNW,299,1.0,4.0,99,0.01,,,0.10,67.0,meteohub,2013-05-20 01:28:00,
2013-05-19 15:33:00,62.1,61.7,29.97,WNW,284,0.0,4.0,99,0.00,,,0.10,123.0,meteohub,2013-05-20 01:33:00,
2013-05-19 15:38:00,62.2,61.9,29.97,WNW,283,0.0,4.0,99,0.00,,,0.10,98.0,meteohub,2013-05-20 01:38:00,
2013-05-19 15:43:00,62.1,61.7,29.97,ENE,57,0.0,4.0,99,0.00,,,0.10,44.0,meteohub,2013-05-20 01:43:00,
2013-05-19 15:48:00,61.9,61.5,29.97,NW,325,1.0,3.0,99,0.00,,,0.10,40.0,meteohub,2013-05-20 01:48:00,
2013-05-19 15:53:00,61.5,61.2,29.97,North,0,0.0,3.0,99,0.00,,,0.10,62.0,meteohub,2013-05-20 01:53:00,
2013-05-19 15:58:00,61.5,61.2,29.97,NW,320,0.0,4.0,99,0.00,,,0.10,88.0,meteohub,2013-05-20 01:58:00,
2013-05-19 16:03:00,61.5,61.2,29.96,NW,325,0.0,4.0,99,0.00,,,0.10,49.0,meteohub,2013-05-20 02:03:00,
2013-05-19 16:08:00,61.5,61.2,29.97,NW,312,1.0,3.0,99,0.00,,,0.10,23.0,meteohub,2013-05-20 02:08:00,
2013-05-19 16:13:00,61.5,61.2,29.97,NNW,336,0.0,3.0,99,0.00,,,0.10,40.0,meteohub,2013-05-20 02:13:00,
2013-05-19 16:18:00,61.5,61.2,29.97,WNW,301,0.0,3.0,99,0.00,,,0.10,26.0,meteohub,2013-05-20 02:18:00,
2013-05-19 16:23:00,61.5,61.2,29.97,West,281,1.0,3.0,99,0.00,,,0.10,25.0,meteohub,2013-05-20 02:23:00,
2013-05-19 16:28:00,61.3,61.0,29.97,WSW,246,1.0,4.0,99,0.00,,,0.10,30.0,meteohub,2013-05-20 02:28:00,
2013-05-19 16:34:00,61.2,60.8,29.97,West,276,0.0,5.0,99,0.01,,,0.11,21.0,meteohub,2013-05-20 02:34:00,
2013-05-19 16:39:00,61.2,60.8,29.97,NW,316,5.0,5.0,99,0.01,,,0.11,23.0,meteohub,2013-05-20 02:39:00,
2013-05-19 16:44:00,61.0,60.4,29.97,West,271,0.0,7.0,98,0.01,,,0.11,35.0,meteohub,2013-05-20 02:44:00,
2013-05-19 16:49:00,60.8,60.3,29.97,WNW,303,0.0,7.0,98,0.01,,,0.11,65.0,meteohub,2013-05-20 02:49:00,
2013-05-19 16:54:00,60.8,60.4,29.97,NW,317,0.0,6.0,99,0.01,,,0.11,163.0,meteohub,2013-05-20 02:54:00,
2013-05-19 16:59:00,60.8,60.4,29.97,NNW,331,0.0,6.0,99,0.01,,,0.11,91.0,meteohub,2013-05-20 02:59:00,
2013-05-19 17:04:00,61.0,60.6,29.97,North,0,1.0,6.0,99,0.01,,,0.11,39.0,meteohub,2013-05-20 03:04:00,
2013-05-19 17:09:00,60.8,60.4,29.97,NNW,340,0.0,4.0,99,0.01,,,0.11,28.0,meteohub,2013-05-20 03:09:00,
2013-05-19 17:14:00,60.8,60.4,29.97,NNW,340,0.0,4.0,99,0.01,,,0.11,32.0,meteohub,2013-05-20 03:14:00,
2013-05-19 17:19:00,60.6,60.3,29.97,WNW,300,0.0,2.0,99,0.01,,,0.11,62.0,meteohub,2013-05-20 03:19:00,
2013-05-19 17:24:00,60.6,60.3,29.98,NNW,327,0.0,3.0,99,0.02,,,0.12,33.0,meteohub,2013-05-20 03:24:00,
2013-05-19 17:29:00,60.6,60.3,29.98,NW,325,0.0,3.0,99,0.01,,,0.12,49.0,meteohub,2013-05-20 03:29:00,
2013-05-19 17:34:00,60.4,60.1,29.98,NW,325,0.0,3.0,99,0.01,,,0.12,83.0,meteohub,2013-05-20 03:34:00,
2013-05-19 17:39:00,60.6,60.3,29.98,North,9,0.0,3.0,99,0.01,,,0.12,86.0,meteohub,2013-05-20 03:39:00,
2013-05-19 17:44:00,60.6,60.3,29.98,North,5,1.0,3.0,99,0.01,,,0.12,47.0,meteohub,2013-05-20 03:44:00,
2013-05-19 17:49:00,60.6,60.3,29.97,North,11,0.0,2.0,99,0.01,,,0.12,26.0,meteohub,2013-05-20 03:49:00,
2013-05-19 17:54:00,60.6,60.3,29.98,North,11,0.0,2.0,99,0.01,,,0.12,33.0,meteohub,2013-05-20 03:54:00,
2013-05-19 17:59:00,60.6,60.3,29.98,NW,315,0.0,2.0,99,0.01,,,0.12,28.0,meteohub,2013-05-20 03:59:00,
2013-05-19 18:01:00,60.6,60.3,29.98,WNW,303,2.0,2.0,99,0.01,,,0.12,35.0,meteohub,2013-05-20 04:01:00,
2013-05-19 18:02:00,60.6,60.3,29.98,NW,321,2.0,2.0,99,0.01,,,0.12,46.0,meteohub,2013-05-20 04:02:00,
2013-05-19 18:07:00,60.4,60.1,29.98,NNW,346,1.0,4.0,99,0.01,,,0.12,76.0,meteohub,2013-05-20 04:07:00,
2013-05-19 18:12:00,60.4,60.1,29.98,NW,312,3.0,4.0,99,0.01,,,0.12,35.0,meteohub,2013-05-20 04:12:00,
2013-05-19 18:18:00,60.4,60.1,29.98,NW,309,1.0,5.0,99,0.00,,,0.12,32.0,meteohub,2013-05-20 04:18:00,
2013-05-19 18:23:00,60.4,60.1,29.98,NW,311,1.0,5.0,99,0.00,,,0.12,30.0,meteohub,2013-05-20 04:23:00,
2013-05-19 18:28:00,60.3,59.7,29.99,NNW,343,1.0,5.0,98,0.00,,,0.12,18.0,meteohub,2013-05-20 04:28:00,
2013-05-19 18:33:00,60.3,59.9,29.99,NNW,327,0.0,3.0,99,0.00,,,0.12,23.0,meteohub,2013-05-20 04:33:00,
2013-05-19 18:38:00,60.1,59.5,29.99,NW,321,0.0,5.0,98,0.00,,,0.12,93.0,meteohub,2013-05-20 04:38:00,
2013-05-19 18:43:00,60.1,59.5,29.99,NW,321,1.0,5.0,98,0.00,,,0.12,76.0,meteohub,2013-05-20 04:43:00,
2013-05-19 18:48:00,60.1,59.5,29.99,ENE,66,3.0,5.0,98,0.00,,,0.12,51.0,meteohub,2013-05-20 04:48:00,
2013-05-19 18:53:00,59.7,59.2,29.99,East,101,0.0,5.0,98,0.00,,,0.12,9.0,meteohub,2013-05-20 04:53:00,
2013-05-19 18:58:00,59.5,59.0,29.99,ESE,113,0.0,3.0,98,0.00,,,0.12,0.0,meteohub,2013-05-20 04:58:00,
2013-05-19 19:03:00,59.4,58.8,29.99,ESE,114,0.0,3.0,98,0.00,,,0.12,0.0,meteohub,2013-05-20 05:03:00,
2013-05-19 19:08:00,59.4,58.8,29.99,ESE,114,0.0,2.0,98,0.00,,,0.12,0.0,meteohub,2013-05-20 05:08:00,
2013-05-19 19:13:00,59.2,58.6,29.99,East,86,0.0,2.0,98,0.00,,,0.12,0.0,meteohub,2013-05-20 05:13:00,
2013-05-19 19:18:00,59.0,58.5,30.00,East,88,0.0,3.0,98,0.00,,,0.12,0.0,meteohub,2013-05-20 05:18:00,
2013-05-19 19:23:00,58.8,58.3,30.00,East,87,0.0,3.0,98,0.00,,,0.12,0.0,meteohub,2013-05-20 05:23:00,
2013-05-19 19:28:00,58.5,57.9,30.00,East,86,0.0,3.0,98,0.00,,,0.12,0.0,meteohub,2013-05-20 05:28:00,
2013-05-19 19:33:00,58.3,57.7,30.00,East,88,0.0,2.0,98,0.00,,,0.12,0.0,meteohub,2013-05-20 05:33:00,
2013-05-19 19:38:00,57.9,57.4,30.01,East,86,1.0,2.0,98,0.00,,,0.12,0.0,meteohub,2013-05-20 05:38:00,
2013-05-19 19:43:00,57.9,57.4,30.01,East,101,0.0,2.0,98,0.00,,,0.12,0.0,meteohub,2013-05-20 05:43:00,
2013-05-19 19:48:00,57.7,57.2,30.01,ESE,102,0.0,2.0,98,0.00,,,0.12,0.0,meteohub,2013-05-20 05:48:00,
2013-05-19 19:53:00,57.4,56.8,30.01,East,101,0.0,2.0,98,0.00,,,0.12,0.0,meteohub,2013-05-20 05:53:00,
2013-05-19 19:58:00,57.0,56.5,30.01,East,101,0.0,2.0,98,0.00,,,0.12,0.0,meteohub,2013-05-20 05:58:00,
2013-05-19 20:04:00,56.8,56.3,30.02,ENE,76,1.0,1.0,98,0.00,,,0.12,0.0,meteohub,2013-05-20 06:04:00,
2013-05-19 20:09:00,56.7,56.1,30.02,East,84,1.0,2.0,98,0.00,,,0.12,0.0,meteohub,2013-05-20 06:09:00,
2013-05-19 20:16:00,56.5,55.9,30.02,East,86,1.0,3.0,98,0.00,,,0.12,0.0,meteohub,2013-05-20 06:16:00,
2013-05-19 20:21:00,56.3,55.8,30.02,East,92,0.0,2.0,98,0.00,,,0.12,0.0,meteohub,2013-05-20 06:21:00,
2013-05-19 20:27:00,56.1,55.6,30.02,East,94,1.0,3.0,98,0.00,,,0.12,0.0,meteohub,2013-05-20 06:27:00,
2013-05-19 20:32:00,55.9,55.4,30.02,East,81,1.0,3.0,98,0.00,,,0.12,0.0,meteohub,2013-05-20 06:32:00,
2013-05-19 20:37:00,55.9,55.4,30.02,East,84,1.0,3.0,98,0.00,,,0.12,0.0,meteohub,2013-05-20 06:37:00,
2013-05-19 20:42:00,55.8,55.2,30.02,ESE,113,2.0,3.0,98,0.00,,,0.12,0.0,meteohub,2013-05-20 06:42:00,
2013-05-19 20:47:00,55.6,55.0,30.02,East,96,1.0,3.0,98,0.00,,,0.12,0.0,meteohub,2013-05-20 06:47:00,
2013-05-19 20:52:00,55.2,54.7,30.02,ENE,69,3.0,3.0,98,0.00,,,0.12,0.0,meteohub,2013-05-20 06:52:00,
2013-05-19 20:57:00,55.0,54.5,30.02,East,80,2.0,5.0,98,0.00,,,0.12,0.0,meteohub,2013-05-20 06:57:00,
2013-05-19 21:02:00,55.0,54.5,30.03,East,88,1.0,5.0,98,0.00,,,0.12,0.0,meteohub,2013-05-20 07:02:00,
2013-05-19 21:07:00,54.9,54.3,30.03,East,91,2.0,5.0,98,0.00,,,0.12,0.0,meteohub,2013-05-20 07:07:00,
2013-05-19 21:12:00,54.9,54.3,30.03,East,88,2.0,4.0,98,0.00,,,0.12,0.0,meteohub,2013-05-20 07:12:00,
2013-05-19 21:17:00,55.0,54.1,30.03,ESE,102,1.0,3.0,97,0.00,,,0.12,0.0,meteohub,2013-05-20 07:17:00,
2013-05-19 21:22:00,55.0,54.1,30.03,East,80,2.0,3.0,97,0.00,,,0.12,0.0,meteohub,2013-05-20 07:22:00,
2013-05-19 21:27:00,55.0,54.1,30.03,ESE,111,3.0,3.0,97,0.00,,,0.12,0.0,meteohub,2013-05-20 07:27:00,
2013-05-19 21:32:00,54.9,54.0,30.03,East,85,2.0,5.0,97,0.00,,,0.12,0.0,meteohub,2013-05-20 07:32:00,
2013-05-19 21:37:00,54.7,53.8,30.04,ENE,77,2.0,5.0,97,0.00,,,0.12,0.0,meteohub,2013-05-20 07:37:00,
2013-05-19 21:42:00,54.3,53.4,30.04,ENE,78,2.0,5.0,97,0.00,,,0.12,0.0,meteohub,2013-05-20 07:42:00,
2013-05-19 21:47:00,54.1,53.2,30.04,East,88,1.0,3.0,97,0.00,,,0.12,0.0,meteohub,2013-05-20 07:47:00,
2013-05-19 21:53:00,53.8,52.9,30.04,East,83,2.0,3.0,97,0.00,,,0.12,0.0,meteohub,2013-05-20 07:53:00,
2013-05-19 21:58:00,53.8,52.9,30.04,East,81,2.0,3.0,97,0.00,,,0.12,0.0,meteohub,2013-05-20 07:58:00,
2013-05-19 22:03:00,53.6,52.7,30.04,East,82,0.0,3.0,97,0.00,,,0.12,0.0,meteohub,2013-05-20 08:03:00,
2013-05-19 22:08:00,53.4,52.9,30.05,East,81,1.0,3.0,98,0.00,,,0.12,0.0,meteohub,2013-05-20 08:08:00,
2013-05-19 22:13:00,53.2,52.3,30.05,East,88,1.0,3.0,97,0.00,,,0.12,0.0,meteohub,2013-05-20 08:13:00,
2013-05-19 22:18:00,53.1,52.5,30.05,East,86,1.0,3.0,98,0.00,,,0.12,0.0,meteohub,2013-05-20 08:18:00,
2013-05-19 22:23:00,53.1,52.5,30.05,ENE,78,1.0,3.0,98,0.00,,,0.12,0.0,meteohub,2013-05-20 08:23:00,
2013-05-19 22:28:00,53.2,52.7,30.05,East,86,2.0,3.0,98,0.00,,,0.12,0.0,meteohub,2013-05-20 08:28:00,
2013-05-19 22:33:00,53.4,52.9,30.05,East,86,2.0,3.0,98,0.00,,,0.12,0.0,meteohub,2013-05-20 08:33:00,
2013-05-19 22:38:00,53.6,53.1,30.05,East,91,1.0,3.0,98,0.00,,,0.12,0.0,meteohub,2013-05-20 08:38:00,
2013-05-19 22:43:00,53.8,53.2,30.04,ESE,113,2.0,5.0,98,0.00,,,0.12,0.0,meteohub,2013-05-20 08:43:00,
2013-05-19 22:48:00,53.6,52.7,30.05,ENE,78,2.0,5.0,97,0.00,,,0.12,0.0,meteohub,2013-05-20 08:48:00,
2013-05-19 22:53:00,53.4,52.5,30.05,East,97,2.0,5.0,97,0.00,,,0.12,0.0,meteohub,2013-05-20 08:53:00,
2013-05-19 22:58:00,53.1,52.2,30.05,East,86,2.0,5.0,97,0.00,,,0.12,0.0,meteohub,2013-05-20 08:58:00,
2013-05-19 23:03:00,52.9,51.8,30.05,ESE,108,2.0,5.0,96,0.00,,,0.12,0.0,meteohub,2013-05-20 09:03:00,
2013-05-19 23:08:00,52.5,51.6,30.05,East,89,3.0,4.0,97,0.00,,,0.12,0.0,meteohub,2013-05-20 09:08:00,
2013-05-19 23:13:00,52.7,51.8,30.05,East,85,2.0,5.0,97,0.00,,,0.12,0.0,meteohub,2013-05-20 09:13:00,
2013-05-19 23:18:00,52.3,51.4,30.05,East,88,3.0,5.0,97,0.00,,,0.12,0.0,meteohub,2013-05-20 09:18:00,
2013-05-19 23:23:00,52.2,51.3,30.05,East,85,3.0,4.0,97,0.00,,,0.12,0.0,meteohub,2013-05-20 09:23:00,
2013-05-19 23:28:00,52.0,51.1,30.05,East,84,3.0,5.0,97,0.00,,,0.12,0.0,meteohub,2013-05-20 09:28:00,
2013-05-19 23:33:00,52.0,51.1,30.05,East,93,1.0,5.0,97,0.00,,,0.12,0.0,meteohub,2013-05-20 09:33:00,
2013-05-19 23:38:00,52.0,51.1,30.05,ENE,78,1.0,5.0,97,0.00,,,0.12,0.0,meteohub,2013-05-20 09:38:00,
2013-05-19 23:43:00,52.0,51.1,30.05,ENE,76,2.0,5.0,97,0.00,,,0.12,0.0,meteohub,2013-05-20 09:43:00,
2013-05-19 23:48:00,52.2,51.6,30.05,ENE,76,2.0,5.0,98,0.00,,,0.12,0.0,meteohub,2013-05-20 09:48:00,
2013-05-19 23:53:00,52.3,51.8,30.05,East,82,2.0,5.0,98,0.00,,,0.12,0.0,meteohub,2013-05-20 09:53:00,
2013-05-19 23:58:00,52.9,52.3,30.05,East,83,1.0,5.0,98,0.00,,,0.12,0.0,meteohub,2013-05-20 09:58:00,